sensor_id;sensor_type;location;lat;lon;timestamp;P1;durP1;ratioP1;P2;durP2;ratioP2
22764;SDS011;11549;50.852;3.816;2023-10-08T00:01:16;9.65;;;3.75;;
22764;SDS011;11549;50.852;3.816;2023-10-08T00:03:46;9.85;;;3.45;;
22764;SDS011;11549;50.852;3.816;2023-10-08T00:06:18;7.78;;;3.42;;
22764;SDS011;11549;50.852;3.816;2023-10-08T00:08:49;8.77;;;3.25;;
22764;SDS011;11549;50.852;3.816;2023-10-08T00:11:18;8.25;;;3.63;;
22764;SDS011;11549;50.852;3.816;2023-10-08T00:13:49;8.68;;;3.65;;
22764;SDS011;11549;50.852;3.816;2023-10-08T00:16:22;8.20;;;3.80;;
22764;SDS011;11549;50.852;3.816;2023-10-08T00:18:50;8.85;;;3.65;;
22764;SDS011;11549;50.852;3.816;2023-10-08T00:21:20;7.63;;;3.35;;
22764;SDS011;11549;50.852;3.816;2023-10-08T00:23:56;7.63;;;3.45;;
22764;SDS011;11549;50.852;3.816;2023-10-08T00:26:27;10.00;;;3.50;;
22764;SDS011;11549;50.852;3.816;2023-10-08T00:28:59;9.48;;;3.88;;
22764;SDS011;11549;50.852;3.816;2023-10-08T00:31:33;9.88;;;3.58;;
22764;SDS011;11549;50.852;3.816;2023-10-08T00:34:07;9.35;;;3.83;;
22764;SDS011;11549;50.852;3.816;2023-10-08T00:36:38;6.88;;;3.40;;
22764;SDS011;11549;50.852;3.816;2023-10-08T00:39:09;9.57;;;3.40;;
22764;SDS011;11549;50.852;3.816;2023-10-08T00:41:40;9.35;;;3.65;;
22764;SDS011;11549;50.852;3.816;2023-10-08T00:44:11;8.05;;;3.50;;
22764;SDS011;11549;50.852;3.816;2023-10-08T00:46:42;7.68;;;3.55;;
22764;SDS011;11549;50.852;3.816;2023-10-08T00:49:15;7.40;;;3.65;;
22764;SDS011;11549;50.852;3.816;2023-10-08T00:52:08;8.23;;;3.70;;
22764;SDS011;11549;50.852;3.816;2023-10-08T00:54:53;10.02;;;3.80;;
22764;SDS011;11549;50.852;3.816;2023-10-08T00:57:34;6.05;;;3.33;;
22764;SDS011;11549;50.852;3.816;2023-10-08T01:00:09;7.22;;;3.50;;
22764;SDS011;11549;50.852;3.816;2023-10-08T01:02:47;7.25;;;3.50;;
22764;SDS011;11549;50.852;3.816;2023-10-08T01:05:21;8.60;;;3.80;;
22764;SDS011;11549;50.852;3.816;2023-10-08T01:08:04;8.85;;;3.40;;
22764;SDS011;11549;50.852;3.816;2023-10-08T01:10:36;9.25;;;3.90;;
22764;SDS011;11549;50.852;3.816;2023-10-08T01:13:06;7.07;;;3.50;;
22764;SDS011;11549;50.852;3.816;2023-10-08T01:15:41;8.10;;;3.35;;
22764;SDS011;11549;50.852;3.816;2023-10-08T01:18:11;9.05;;;3.47;;
22764;SDS011;11549;50.852;3.816;2023-10-08T01:20:44;8.57;;;3.60;;
22764;SDS011;11549;50.852;3.816;2023-10-08T01:23:20;6.75;;;3.45;;
22764;SDS011;11549;50.852;3.816;2023-10-08T01:25:53;7.18;;;3.60;;
22764;SDS011;11549;50.852;3.816;2023-10-08T01:28:36;8.38;;;4.05;;
22764;SDS011;11549;50.852;3.816;2023-10-08T01:31:06;8.05;;;3.88;;
22764;SDS011;11549;50.852;3.816;2023-10-08T01:33:39;9.85;;;3.92;;
22764;SDS011;11549;50.852;3.816;2023-10-08T01:36:14;10.90;;;4.40;;
22764;SDS011;11549;50.852;3.816;2023-10-08T01:38:43;8.93;;;4.00;;
22764;SDS011;11549;50.852;3.816;2023-10-08T01:41:15;8.93;;;3.55;;
22764;SDS011;11549;50.852;3.816;2023-10-08T01:43:46;10.13;;;4.30;;
22764;SDS011;11549;50.852;3.816;2023-10-08T01:46:16;8.32;;;4.07;;
22764;SDS011;11549;50.852;3.816;2023-10-08T01:48:48;9.45;;;3.60;;
22764;SDS011;11549;50.852;3.816;2023-10-08T01:51:26;10.32;;;3.83;;
22764;SDS011;11549;50.852;3.816;2023-10-08T01:54:03;8.40;;;3.70;;
22764;SDS011;11549;50.852;3.816;2023-10-08T01:56:38;11.38;;;4.18;;
22764;SDS011;11549;50.852;3.816;2023-10-08T01:59:08;6.85;;;3.50;;
22764;SDS011;11549;50.852;3.816;2023-10-08T02:01:38;11.55;;;3.97;;
22764;SDS011;11549;50.852;3.816;2023-10-08T02:04:07;9.02;;;3.88;;
22764;SDS011;11549;50.852;3.816;2023-10-08T02:06:36;10.48;;;3.53;;
22764;SDS011;11549;50.852;3.816;2023-10-08T02:09:08;8.43;;;3.75;;
22764;SDS011;11549;50.852;3.816;2023-10-08T02:11:43;8.35;;;3.78;;
22764;SDS011;11549;50.852;3.816;2023-10-08T02:14:12;8.40;;;3.67;;
22764;SDS011;11549;50.852;3.816;2023-10-08T02:16:42;10.73;;;3.65;;
22764;SDS011;11549;50.852;3.816;2023-10-08T02:19:11;8.40;;;3.65;;
22764;SDS011;11549;50.852;3.816;2023-10-08T02:21:40;9.02;;;3.60;;
22764;SDS011;11549;50.852;3.816;2023-10-08T02:24:14;8.20;;;4.60;;
22764;SDS011;11549;50.852;3.816;2023-10-08T02:26:43;10.18;;;3.75;;
22764;SDS011;11549;50.852;3.816;2023-10-08T02:29:12;7.70;;;3.50;;
22764;SDS011;11549;50.852;3.816;2023-10-08T02:31:41;7.88;;;3.58;;
22764;SDS011;11549;50.852;3.816;2023-10-08T02:34:10;9.40;;;4.25;;
22764;SDS011;11549;50.852;3.816;2023-10-08T02:36:39;9.05;;;3.45;;
22764;SDS011;11549;50.852;3.816;2023-10-08T02:39:10;11.20;;;3.50;;
22764;SDS011;11549;50.852;3.816;2023-10-08T02:41:47;10.05;;;3.95;;
22764;SDS011;11549;50.852;3.816;2023-10-08T02:44:17;9.93;;;4.13;;
22764;SDS011;11549;50.852;3.816;2023-10-08T02:46:47;9.00;;;4.40;;
22764;SDS011;11549;50.852;3.816;2023-10-08T02:49:18;10.05;;;3.92;;
22764;SDS011;11549;50.852;3.816;2023-10-08T02:51:51;7.78;;;3.95;;
22764;SDS011;11549;50.852;3.816;2023-10-08T02:54:21;10.52;;;4.25;;
22764;SDS011;11549;50.852;3.816;2023-10-08T02:57:00;9.10;;;4.20;;
22764;SDS011;11549;50.852;3.816;2023-10-08T02:59:31;8.90;;;3.70;;
22764;SDS011;11549;50.852;3.816;2023-10-08T03:02:06;7.30;;;3.92;;
22764;SDS011;11549;50.852;3.816;2023-10-08T03:04:41;9.88;;;3.90;;
22764;SDS011;11549;50.852;3.816;2023-10-08T03:07:12;10.02;;;4.00;;
22764;SDS011;11549;50.852;3.816;2023-10-08T03:09:48;9.02;;;4.07;;
22764;SDS011;11549;50.852;3.816;2023-10-08T03:12:19;8.85;;;4.15;;
22764;SDS011;11549;50.852;3.816;2023-10-08T03:14:51;8.52;;;3.65;;
22764;SDS011;11549;50.852;3.816;2023-10-08T03:17:39;8.90;;;4.07;;
22764;SDS011;11549;50.852;3.816;2023-10-08T03:20:16;8.85;;;3.58;;
22764;SDS011;11549;50.852;3.816;2023-10-08T03:22:58;9.07;;;4.05;;
22764;SDS011;11549;50.852;3.816;2023-10-08T03:25:26;9.10;;;4.25;;
22764;SDS011;11549;50.852;3.816;2023-10-08T03:27:58;6.93;;;3.65;;
22764;SDS011;11549;50.852;3.816;2023-10-08T03:30:26;11.82;;;3.90;;
22764;SDS011;11549;50.852;3.816;2023-10-08T03:32:55;7.80;;;3.90;;
22764;SDS011;11549;50.852;3.816;2023-10-08T03:35:23;10.20;;;4.38;;
22764;SDS011;11549;50.852;3.816;2023-10-08T03:37:57;7.88;;;3.78;;
22764;SDS011;11549;50.852;3.816;2023-10-08T03:40:46;9.20;;;3.55;;
22764;SDS011;11549;50.852;3.816;2023-10-08T03:43:18;10.23;;;4.40;;
22764;SDS011;11549;50.852;3.816;2023-10-08T03:45:51;8.27;;;4.00;;
22764;SDS011;11549;50.852;3.816;2023-10-08T03:48:21;8.95;;;4.25;;
22764;SDS011;11549;50.852;3.816;2023-10-08T03:50:49;9.63;;;4.00;;
22764;SDS011;11549;50.852;3.816;2023-10-08T03:53:23;9.73;;;3.95;;
22764;SDS011;11549;50.852;3.816;2023-10-08T03:55:51;9.18;;;3.92;;
22764;SDS011;11549;50.852;3.816;2023-10-08T03:58:23;9.23;;;4.07;;
22764;SDS011;11549;50.852;3.816;2023-10-08T04:00:58;7.80;;;4.00;;
22764;SDS011;11549;50.852;3.816;2023-10-08T04:03:35;11.48;;;4.10;;
22764;SDS011;11549;50.852;3.816;2023-10-08T04:06:26;7.90;;;3.72;;
22764;SDS011;11549;50.852;3.816;2023-10-08T04:09:04;7.75;;;3.83;;
22764;SDS011;11549;50.852;3.816;2023-10-08T04:11:47;9.30;;;4.43;;
22764;SDS011;11549;50.852;3.816;2023-10-08T04:14:27;9.30;;;3.97;;
22764;SDS011;11549;50.852;3.816;2023-10-08T04:16:56;10.80;;;4.38;;
22764;SDS011;11549;50.852;3.816;2023-10-08T04:19:25;8.20;;;4.57;;
22764;SDS011;11549;50.852;3.816;2023-10-08T04:21:54;9.38;;;4.32;;
22764;SDS011;11549;50.852;3.816;2023-10-08T04:24:25;7.38;;;3.72;;
22764;SDS011;11549;50.852;3.816;2023-10-08T04:27:01;9.60;;;4.32;;
22764;SDS011;11549;50.852;3.816;2023-10-08T04:29:37;9.23;;;4.15;;
22764;SDS011;11549;50.852;3.816;2023-10-08T04:32:08;9.20;;;4.30;;
22764;SDS011;11549;50.852;3.816;2023-10-08T04:34:39;7.32;;;4.30;;
22764;SDS011;11549;50.852;3.816;2023-10-08T04:39:46;9.90;;;4.97;;
22764;SDS011;11549;50.852;3.816;2023-10-08T04:42:21;9.25;;;4.57;;
22764;SDS011;11549;50.852;3.816;2023-10-08T04:44:54;8.65;;;3.97;;
22764;SDS011;11549;50.852;3.816;2023-10-08T04:47:25;8.70;;;3.90;;
22764;SDS011;11549;50.852;3.816;2023-10-08T04:50:02;8.60;;;4.38;;
22764;SDS011;11549;50.852;3.816;2023-10-08T04:52:32;9.60;;;4.50;;
22764;SDS011;11549;50.852;3.816;2023-10-08T04:55:12;10.68;;;4.45;;
22764;SDS011;11549;50.852;3.816;2023-10-08T04:57:46;9.27;;;4.63;;
22764;SDS011;11549;50.852;3.816;2023-10-08T05:00:17;9.40;;;4.20;;
22764;SDS011;11549;50.852;3.816;2023-10-08T05:03:07;8.48;;;4.50;;
22764;SDS011;11549;50.852;3.816;2023-10-08T05:05:42;10.90;;;4.70;;
22764;SDS011;11549;50.852;3.816;2023-10-08T05:08:35;9.48;;;4.28;;
22764;SDS011;11549;50.852;3.816;2023-10-08T05:11:24;9.38;;;4.43;;
22764;SDS011;11549;50.852;3.816;2023-10-08T05:14:03;9.15;;;4.55;;
22764;SDS011;11549;50.852;3.816;2023-10-08T05:16:44;8.88;;;3.95;;
22764;SDS011;11549;50.852;3.816;2023-10-08T05:19:27;8.70;;;4.30;;
22764;SDS011;11549;50.852;3.816;2023-10-08T05:22:15;8.85;;;4.50;;
22764;SDS011;11549;50.852;3.816;2023-10-08T05:25:10;11.65;;;4.60;;
22764;SDS011;11549;50.852;3.816;2023-10-08T05:27:52;12.73;;;4.85;;
22764;SDS011;11549;50.852;3.816;2023-10-08T05:30:36;8.98;;;4.50;;
22764;SDS011;11549;50.852;3.816;2023-10-08T05:33:10;11.23;;;4.88;;
22764;SDS011;11549;50.852;3.816;2023-10-08T05:35:52;10.55;;;4.60;;
22764;SDS011;11549;50.852;3.816;2023-10-08T05:38:36;10.55;;;4.97;;
22764;SDS011;11549;50.852;3.816;2023-10-08T05:41:26;12.98;;;5.32;;
22764;SDS011;11549;50.852;3.816;2023-10-08T05:44:06;11.38;;;4.97;;
22764;SDS011;11549;50.852;3.816;2023-10-08T05:46:54;11.55;;;5.13;;
22764;SDS011;11549;50.852;3.816;2023-10-08T05:49:43;10.20;;;4.78;;
22764;SDS011;11549;50.852;3.816;2023-10-08T05:52:41;12.10;;;5.25;;
22764;SDS011;11549;50.852;3.816;2023-10-08T05:55:17;12.00;;;5.28;;
22764;SDS011;11549;50.852;3.816;2023-10-08T05:57:52;11.40;;;5.35;;
22764;SDS011;11549;50.852;3.816;2023-10-08T06:00:29;14.93;;;6.40;;
22764;SDS011;11549;50.852;3.816;2023-10-08T06:03:11;11.52;;;4.97;;
22764;SDS011;11549;50.852;3.816;2023-10-08T06:06:02;10.00;;;4.13;;
22764;SDS011;11549;50.852;3.816;2023-10-08T06:08:45;13.77;;;5.68;;
22764;SDS011;11549;50.852;3.816;2023-10-08T06:11:18;9.75;;;4.70;;
22764;SDS011;11549;50.852;3.816;2023-10-08T06:14:04;10.30;;;5.10;;
22764;SDS011;11549;50.852;3.816;2023-10-08T06:16:40;11.02;;;5.28;;
22764;SDS011;11549;50.852;3.816;2023-10-08T06:19:09;12.45;;;5.65;;
22764;SDS011;11549;50.852;3.816;2023-10-08T06:21:40;11.73;;;5.88;;
22764;SDS011;11549;50.852;3.816;2023-10-08T06:24:10;10.70;;;5.00;;
22764;SDS011;11549;50.852;3.816;2023-10-08T06:26:43;16.45;;;6.65;;
22764;SDS011;11549;50.852;3.816;2023-10-08T06:29:15;10.18;;;5.30;;
22764;SDS011;11549;50.852;3.816;2023-10-08T06:31:54;11.98;;;5.10;;
22764;SDS011;11549;50.852;3.816;2023-10-08T06:34:28;10.68;;;5.30;;
22764;SDS011;11549;50.852;3.816;2023-10-08T06:36:59;11.48;;;5.63;;
22764;SDS011;11549;50.852;3.816;2023-10-08T06:39:28;10.57;;;5.72;;
22764;SDS011;11549;50.852;3.816;2023-10-08T06:42:14;12.60;;;5.55;;
22764;SDS011;11549;50.852;3.816;2023-10-08T06:44:44;10.88;;;5.68;;
22764;SDS011;11549;50.852;3.816;2023-10-08T06:47:15;10.23;;;4.90;;
22764;SDS011;11549;50.852;3.816;2023-10-08T06:49:45;11.55;;;5.72;;
22764;SDS011;11549;50.852;3.816;2023-10-08T06:52:15;10.65;;;5.60;;
22764;SDS011;11549;50.852;3.816;2023-10-08T06:54:46;12.55;;;5.57;;
22764;SDS011;11549;50.852;3.816;2023-10-08T06:57:14;10.32;;;5.60;;
22764;SDS011;11549;50.852;3.816;2023-10-08T06:59:46;11.80;;;5.93;;
22764;SDS011;11549;50.852;3.816;2023-10-08T07:02:17;10.25;;;5.47;;
22764;SDS011;11549;50.852;3.816;2023-10-08T07:04:47;11.55;;;6.22;;
22764;SDS011;11549;50.852;3.816;2023-10-08T07:07:19;11.13;;;6.72;;
22764;SDS011;11549;50.852;3.816;2023-10-08T07:09:47;11.82;;;6.43;;
22764;SDS011;11549;50.852;3.816;2023-10-08T07:12:18;13.68;;;6.30;;
22764;SDS011;11549;50.852;3.816;2023-10-08T07:14:51;12.55;;;6.45;;
22764;SDS011;11549;50.852;3.816;2023-10-08T07:17:20;12.63;;;6.30;;
22764;SDS011;11549;50.852;3.816;2023-10-08T07:19:50;14.27;;;6.88;;
22764;SDS011;11549;50.852;3.816;2023-10-08T07:22:21;10.73;;;6.47;;
22764;SDS011;11549;50.852;3.816;2023-10-08T07:24:50;14.82;;;6.85;;
22764;SDS011;11549;50.852;3.816;2023-10-08T07:27:20;12.90;;;6.43;;
22764;SDS011;11549;50.852;3.816;2023-10-08T07:29:51;10.70;;;6.38;;
22764;SDS011;11549;50.852;3.816;2023-10-08T07:32:23;13.20;;;6.38;;
22764;SDS011;11549;50.852;3.816;2023-10-08T07:34:53;9.10;;;5.63;;
22764;SDS011;11549;50.852;3.816;2023-10-08T07:37:43;12.15;;;5.88;;
22764;SDS011;11549;50.852;3.816;2023-10-08T07:40:12;11.43;;;5.70;;
22764;SDS011;11549;50.852;3.816;2023-10-08T07:42:41;10.98;;;6.00;;
22764;SDS011;11549;50.852;3.816;2023-10-08T07:45:10;10.88;;;5.55;;
22764;SDS011;11549;50.852;3.816;2023-10-08T07:47:44;9.40;;;5.53;;
22764;SDS011;11549;50.852;3.816;2023-10-08T07:50:13;9.68;;;5.00;;
22764;SDS011;11549;50.852;3.816;2023-10-08T07:52:44;10.95;;;5.32;;
22764;SDS011;11549;50.852;3.816;2023-10-08T07:55:12;9.73;;;5.38;;
22764;SDS011;11549;50.852;3.816;2023-10-08T07:57:45;13.13;;;6.00;;
22764;SDS011;11549;50.852;3.816;2023-10-08T08:00:14;11.23;;;5.43;;
22764;SDS011;11549;50.852;3.816;2023-10-08T08:02:50;12.65;;;6.15;;
22764;SDS011;11549;50.852;3.816;2023-10-08T08:05:22;9.55;;;5.72;;
22764;SDS011;11549;50.852;3.816;2023-10-08T08:07:53;11.30;;;5.78;;
22764;SDS011;11549;50.852;3.816;2023-10-08T08:10:23;11.15;;;6.05;;
22764;SDS011;11549;50.852;3.816;2023-10-08T08:12:52;13.02;;;5.80;;
22764;SDS011;11549;50.852;3.816;2023-10-08T08:15:23;9.70;;;5.80;;
22764;SDS011;11549;50.852;3.816;2023-10-08T08:17:54;10.52;;;5.70;;
22764;SDS011;11549;50.852;3.816;2023-10-08T08:20:23;9.75;;;5.78;;
22764;SDS011;11549;50.852;3.816;2023-10-08T08:23:03;11.35;;;6.03;;
22764;SDS011;11549;50.852;3.816;2023-10-08T08:25:37;7.57;;;4.97;;
22764;SDS011;11549;50.852;3.816;2023-10-08T08:28:12;9.85;;;5.10;;
22764;SDS011;11549;50.852;3.816;2023-10-08T08:30:44;10.27;;;5.70;;
22764;SDS011;11549;50.852;3.816;2023-10-08T08:33:13;13.52;;;6.20;;
22764;SDS011;11549;50.852;3.816;2023-10-08T08:35:57;9.05;;;5.15;;
22764;SDS011;11549;50.852;3.816;2023-10-08T08:38:28;11.07;;;5.57;;
22764;SDS011;11549;50.852;3.816;2023-10-08T08:41:02;11.68;;;5.93;;
22764;SDS011;11549;50.852;3.816;2023-10-08T08:43:34;10.43;;;5.85;;
22764;SDS011;11549;50.852;3.816;2023-10-08T08:46:03;10.20;;;5.70;;
22764;SDS011;11549;50.852;3.816;2023-10-08T08:48:34;11.65;;;5.60;;
22764;SDS011;11549;50.852;3.816;2023-10-08T08:51:05;9.32;;;5.18;;
22764;SDS011;11549;50.852;3.816;2023-10-08T08:53:37;9.40;;;5.07;;
22764;SDS011;11549;50.852;3.816;2023-10-08T08:56:06;10.25;;;5.97;;
22764;SDS011;11549;50.852;3.816;2023-10-08T08:58:36;12.85;;;5.97;;
22764;SDS011;11549;50.852;3.816;2023-10-08T09:01:08;9.43;;;5.75;;
22764;SDS011;11549;50.852;3.816;2023-10-08T09:03:40;10.95;;;6.00;;
22764;SDS011;11549;50.852;3.816;2023-10-08T09:06:09;10.32;;;6.30;;
22764;SDS011;11549;50.852;3.816;2023-10-08T09:08:39;12.02;;;5.55;;
22764;SDS011;11549;50.852;3.816;2023-10-08T09:11:15;11.82;;;6.35;;
22764;SDS011;11549;50.852;3.816;2023-10-08T09:13:44;12.20;;;6.03;;
22764;SDS011;11549;50.852;3.816;2023-10-08T09:16:13;11.45;;;6.00;;
22764;SDS011;11549;50.852;3.816;2023-10-08T09:18:42;10.57;;;6.13;;
22764;SDS011;11549;50.852;3.816;2023-10-08T09:21:13;12.20;;;5.97;;
22764;SDS011;11549;50.852;3.816;2023-10-08T09:26:22;10.68;;;5.88;;
22764;SDS011;11549;50.852;3.816;2023-10-08T09:28:54;10.52;;;6.25;;
22764;SDS011;11549;50.852;3.816;2023-10-08T09:31:23;10.85;;;5.68;;
22764;SDS011;11549;50.852;3.816;2023-10-08T09:33:53;15.15;;;6.50;;
22764;SDS011;11549;50.852;3.816;2023-10-08T09:36:23;11.25;;;6.30;;
22764;SDS011;11549;50.852;3.816;2023-10-08T09:39:01;13.75;;;6.75;;
22764;SDS011;11549;50.852;3.816;2023-10-08T09:41:32;11.80;;;5.97;;
22764;SDS011;11549;50.852;3.816;2023-10-08T09:44:02;9.80;;;5.95;;
22764;SDS011;11549;50.852;3.816;2023-10-08T09:46:38;10.35;;;6.43;;
22764;SDS011;11549;50.852;3.816;2023-10-08T09:49:09;9.63;;;5.70;;
22764;SDS011;11549;50.852;3.816;2023-10-08T09:51:43;9.40;;;6.07;;
22764;SDS011;11549;50.852;3.816;2023-10-08T09:54:15;11.60;;;6.60;;
22764;SDS011;11549;50.852;3.816;2023-10-08T09:56:49;12.88;;;6.80;;
22764;SDS011;11549;50.852;3.816;2023-10-08T09:59:19;13.07;;;6.18;;
22764;SDS011;11549;50.852;3.816;2023-10-08T10:01:47;13.80;;;6.47;;
22764;SDS011;11549;50.852;3.816;2023-10-08T10:04:22;12.88;;;7.25;;
22764;SDS011;11549;50.852;3.816;2023-10-08T10:06:52;11.93;;;6.30;;
22764;SDS011;11549;50.852;3.816;2023-10-08T10:09:22;13.30;;;6.03;;
22764;SDS011;11549;50.852;3.816;2023-10-08T10:11:51;15.88;;;7.07;;
22764;SDS011;11549;50.852;3.816;2023-10-08T10:14:24;14.57;;;6.57;;
22764;SDS011;11549;50.852;3.816;2023-10-08T10:17:08;11.65;;;6.68;;
22764;SDS011;11549;50.852;3.816;2023-10-08T10:19:42;14.55;;;6.90;;
22764;SDS011;11549;50.852;3.816;2023-10-08T10:22:13;13.55;;;7.35;;
22764;SDS011;11549;50.852;3.816;2023-10-08T10:24:45;13.50;;;6.85;;
22764;SDS011;11549;50.852;3.816;2023-10-08T10:27:14;11.48;;;6.32;;
22764;SDS011;11549;50.852;3.816;2023-10-08T10:29:44;13.18;;;5.80;;
22764;SDS011;11549;50.852;3.816;2023-10-08T10:32:14;15.23;;;6.80;;
22764;SDS011;11549;50.852;3.816;2023-10-08T10:34:44;11.57;;;6.07;;
22764;SDS011;11549;50.852;3.816;2023-10-08T10:37:14;12.43;;;5.82;;
22764;SDS011;11549;50.852;3.816;2023-10-08T10:39:55;11.88;;;6.50;;
22764;SDS011;11549;50.852;3.816;2023-10-08T10:42:26;16.52;;;6.95;;
22764;SDS011;11549;50.852;3.816;2023-10-08T10:44:55;14.30;;;6.38;;
22764;SDS011;11549;50.852;3.816;2023-10-08T10:47:25;13.38;;;6.90;;
22764;SDS011;11549;50.852;3.816;2023-10-08T10:49:54;14.30;;;7.20;;
22764;SDS011;11549;50.852;3.816;2023-10-08T10:52:45;14.88;;;6.88;;
22764;SDS011;11549;50.852;3.816;2023-10-08T10:55:20;11.25;;;6.20;;
22764;SDS011;11549;50.852;3.816;2023-10-08T10:57:58;11.43;;;7.00;;
22764;SDS011;11549;50.852;3.816;2023-10-08T11:00:31;13.95;;;6.47;;
22764;SDS011;11549;50.852;3.816;2023-10-08T11:03:25;15.57;;;7.57;;
22764;SDS011;11549;50.852;3.816;2023-10-08T11:05:56;14.75;;;6.35;;
22764;SDS011;11549;50.852;3.816;2023-10-08T11:08:32;12.98;;;5.97;;
22764;SDS011;11549;50.852;3.816;2023-10-08T11:11:03;13.52;;;6.88;;
22764;SDS011;11549;50.852;3.816;2023-10-08T11:13:36;13.68;;;7.22;;
22764;SDS011;11549;50.852;3.816;2023-10-08T11:16:07;11.57;;;7.18;;
22764;SDS011;11549;50.852;3.816;2023-10-08T11:18:44;15.27;;;7.43;;
22764;SDS011;11549;50.852;3.816;2023-10-08T11:21:17;13.23;;;6.88;;
22764;SDS011;11549;50.852;3.816;2023-10-08T11:23:51;14.68;;;7.60;;
22764;SDS011;11549;50.852;3.816;2023-10-08T11:26:24;13.00;;;7.10;;
22764;SDS011;11549;50.852;3.816;2023-10-08T11:29:00;13.95;;;6.95;;
22764;SDS011;11549;50.852;3.816;2023-10-08T11:31:30;13.40;;;6.90;;
22764;SDS011;11549;50.852;3.816;2023-10-08T11:34:02;12.43;;;6.75;;
22764;SDS011;11549;50.852;3.816;2023-10-08T11:36:36;13.52;;;7.32;;
22764;SDS011;11549;50.852;3.816;2023-10-08T11:39:16;10.20;;;6.25;;
22764;SDS011;11549;50.852;3.816;2023-10-08T11:41:59;10.70;;;6.35;;
22764;SDS011;11549;50.852;3.816;2023-10-08T11:44:33;13.15;;;6.55;;
22764;SDS011;11549;50.852;3.816;2023-10-08T11:47:03;12.98;;;6.68;;
22764;SDS011;11549;50.852;3.816;2023-10-08T11:49:38;12.13;;;6.68;;
22764;SDS011;11549;50.852;3.816;2023-10-08T11:52:14;13.15;;;6.55;;
22764;SDS011;11549;50.852;3.816;2023-10-08T11:54:43;12.60;;;6.07;;
22764;SDS011;11549;50.852;3.816;2023-10-08T11:57:16;13.85;;;6.45;;
22764;SDS011;11549;50.852;3.816;2023-10-08T11:59:49;11.00;;;6.07;;
22764;SDS011;11549;50.852;3.816;2023-10-08T12:02:22;14.02;;;7.28;;
22764;SDS011;11549;50.852;3.816;2023-10-08T12:04:50;12.23;;;6.65;;
22764;SDS011;11549;50.852;3.816;2023-10-08T12:07:19;12.05;;;6.38;;
22764;SDS011;11549;50.852;3.816;2023-10-08T12:09:54;13.70;;;6.03;;
22764;SDS011;11549;50.852;3.816;2023-10-08T12:12:24;13.18;;;6.47;;
22764;SDS011;11549;50.852;3.816;2023-10-08T12:14:54;11.50;;;6.28;;
22764;SDS011;11549;50.852;3.816;2023-10-08T12:17:23;11.15;;;5.28;;
22764;SDS011;11549;50.852;3.816;2023-10-08T12:20:05;13.27;;;6.03;;
22764;SDS011;11549;50.852;3.816;2023-10-08T12:22:50;10.27;;;5.72;;
22764;SDS011;11549;50.852;3.816;2023-10-08T12:25:19;10.73;;;6.07;;
22764;SDS011;11549;50.852;3.816;2023-10-08T12:27:48;11.35;;;6.05;;
22764;SDS011;11549;50.852;3.816;2023-10-08T12:30:17;10.60;;;6.05;;
22764;SDS011;11549;50.852;3.816;2023-10-08T12:32:45;10.10;;;5.82;;
22764;SDS011;11549;50.852;3.816;2023-10-08T12:35:14;13.48;;;6.13;;
22764;SDS011;11549;50.852;3.816;2023-10-08T12:37:42;13.10;;;6.22;;
22764;SDS011;11549;50.852;3.816;2023-10-08T12:40:11;11.52;;;6.03;;
22764;SDS011;11549;50.852;3.816;2023-10-08T12:42:51;10.50;;;5.72;;
22764;SDS011;11549;50.852;3.816;2023-10-08T12:45:21;8.98;;;5.00;;
22764;SDS011;11549;50.852;3.816;2023-10-08T12:47:49;11.82;;;6.22;;
22764;SDS011;11549;50.852;3.816;2023-10-08T12:50:19;11.77;;;5.60;;
22764;SDS011;11549;50.852;3.816;2023-10-08T12:52:56;10.70;;;5.70;;
22764;SDS011;11549;50.852;3.816;2023-10-08T12:55:30;11.02;;;5.88;;
22764;SDS011;11549;50.852;3.816;2023-10-08T12:58:07;11.63;;;5.55;;
22764;SDS011;11549;50.852;3.816;2023-10-08T13:00:37;9.93;;;5.95;;
22764;SDS011;11549;50.852;3.816;2023-10-08T13:03:08;12.70;;;6.57;;
22764;SDS011;11549;50.852;3.816;2023-10-08T13:05:42;12.73;;;5.72;;
22764;SDS011;11549;50.852;3.816;2023-10-08T13:08:11;9.88;;;5.65;;
22764;SDS011;11549;50.852;3.816;2023-10-08T13:10:40;10.75;;;5.60;;
22764;SDS011;11549;50.852;3.816;2023-10-08T13:15:45;13.52;;;5.65;;
22764;SDS011;11549;50.852;3.816;2023-10-08T13:18:13;11.20;;;5.40;;
22764;SDS011;11549;50.852;3.816;2023-10-08T13:20:42;9.00;;;5.03;;
22764;SDS011;11549;50.852;3.816;2023-10-08T13:23:11;9.65;;;5.22;;
22764;SDS011;11549;50.852;3.816;2023-10-08T13:25:40;10.82;;;5.20;;
22764;SDS011;11549;50.852;3.816;2023-10-08T13:28:08;10.25;;;5.47;;
22764;SDS011;11549;50.852;3.816;2023-10-08T13:30:39;12.27;;;5.88;;
22764;SDS011;11549;50.852;3.816;2023-10-08T13:33:08;11.82;;;5.60;;
22764;SDS011;11549;50.852;3.816;2023-10-08T13:35:37;10.60;;;5.60;;
22764;SDS011;11549;50.852;3.816;2023-10-08T13:38:05;9.98;;;5.50;;
22764;SDS011;11549;50.852;3.816;2023-10-08T13:40:40;10.13;;;5.10;;
22764;SDS011;11549;50.852;3.816;2023-10-08T13:43:29;12.98;;;5.60;;
22764;SDS011;11549;50.852;3.816;2023-10-08T13:46:05;8.75;;;4.82;;
22764;SDS011;11549;50.852;3.816;2023-10-08T13:48:39;11.13;;;5.38;;
22764;SDS011;11549;50.852;3.816;2023-10-08T13:51:13;10.00;;;4.95;;
22764;SDS011;11549;50.852;3.816;2023-10-08T13:53:50;10.13;;;5.25;;
22764;SDS011;11549;50.852;3.816;2023-10-08T13:56:20;12.15;;;5.63;;
22764;SDS011;11549;50.852;3.816;2023-10-08T13:58:53;10.93;;;4.95;;
22764;SDS011;11549;50.852;3.816;2023-10-08T14:01:32;8.68;;;4.80;;
22764;SDS011;11549;50.852;3.816;2023-10-08T14:04:01;11.57;;;5.70;;
22764;SDS011;11549;50.852;3.816;2023-10-08T14:06:34;12.48;;;5.55;;
22764;SDS011;11549;50.852;3.816;2023-10-08T14:09:03;9.23;;;5.20;;
22764;SDS011;11549;50.852;3.816;2023-10-08T14:11:36;8.60;;;5.27;;
22764;SDS011;11549;50.852;3.816;2023-10-08T14:14:04;9.02;;;4.80;;
22764;SDS011;11549;50.852;3.816;2023-10-08T14:16:40;10.98;;;5.40;;
22764;SDS011;11549;50.852;3.816;2023-10-08T14:19:09;10.02;;;5.10;;
22764;SDS011;11549;50.852;3.816;2023-10-08T14:21:40;10.77;;;4.82;;
22764;SDS011;11549;50.852;3.816;2023-10-08T14:24:16;9.80;;;5.18;;
22764;SDS011;11549;50.852;3.816;2023-10-08T14:26:44;10.68;;;5.03;;
22764;SDS011;11549;50.852;3.816;2023-10-08T14:29:18;8.73;;;4.30;;
22764;SDS011;11549;50.852;3.816;2023-10-08T14:31:48;11.02;;;5.28;;
22764;SDS011;11549;50.852;3.816;2023-10-08T14:34:17;9.68;;;5.15;;
22764;SDS011;11549;50.852;3.816;2023-10-08T14:37:08;9.88;;;5.18;;
22764;SDS011;11549;50.852;3.816;2023-10-08T14:39:54;8.93;;;4.90;;
22764;SDS011;11549;50.852;3.816;2023-10-08T14:42:40;9.98;;;5.18;;
22764;SDS011;11549;50.852;3.816;2023-10-08T14:45:30;8.77;;;4.28;;
22764;SDS011;11549;50.852;3.816;2023-10-08T14:48:04;9.13;;;4.88;;
22764;SDS011;11549;50.852;3.816;2023-10-08T14:50:38;8.88;;;4.68;;
22764;SDS011;11549;50.852;3.816;2023-10-08T14:53:09;8.90;;;4.82;;
22764;SDS011;11549;50.852;3.816;2023-10-08T14:55:37;9.98;;;5.32;;
22764;SDS011;11549;50.852;3.816;2023-10-08T14:58:07;10.07;;;5.15;;
22764;SDS011;11549;50.852;3.816;2023-10-08T15:00:37;9.63;;;4.97;;
22764;SDS011;11549;50.852;3.816;2023-10-08T15:03:10;10.68;;;5.10;;
22764;SDS011;11549;50.852;3.816;2023-10-08T15:05:39;10.73;;;5.03;;
22764;SDS011;11549;50.852;3.816;2023-10-08T15:08:08;10.90;;;4.97;;
22764;SDS011;11549;50.852;3.816;2023-10-08T15:10:37;9.40;;;5.22;;
22764;SDS011;11549;50.852;3.816;2023-10-08T15:13:06;10.32;;;5.03;;
22764;SDS011;11549;50.852;3.816;2023-10-08T15:15:35;9.05;;;4.90;;
22764;SDS011;11549;50.852;3.816;2023-10-08T15:18:07;8.68;;;4.88;;
22764;SDS011;11549;50.852;3.816;2023-10-08T15:20:40;8.27;;;5.23;;
22764;SDS011;11549;50.852;3.816;2023-10-08T15:23:10;9.00;;;5.00;;
22764;SDS011;11549;50.852;3.816;2023-10-08T15:25:39;10.27;;;5.43;;